In Rescue
 
Open Full Screen Window  High Contrast Mode
Wind Gusting 00 knots
07
November 29, 2022 9:31 AM CST
Weather Information
Wind Direction
  230 °
Wind Speed
  07 kt (8 mph)
Wind Gust
  00 kt (0 mph)
Altimeter
29.68 in
Visibility
10 SM
Temperature
-07° C
19° F
Dewpoint
-11° C
12° F
Humidity
73%
1hr Rain Fall
00.00 in.
24hr Rain Fall
00.00 in.
Sky Condition
Broken @ 2,200 ft
MVFR

METAR KVWU 291531Z AUTO 23007KT 10SM BKN022 M07/M11 A2968 RMK AO2 PWINO

FAA Disclaimer: The data displayed is for advisory purposes only and is not to be used for flight planning or operations.